Time;durP1;ratioP1;P1;durP2;ratioP2;P2;SDS_P1;SDS_P2;PMS_P1;PMS_P2;Temp;Humidity;BMP_temperature;BMP_pressure;BME280_temperature;BME280_humidity;BME280_pressure;Samples;Min_cycle;Max_cycle;Signal;HPM_P1;HPM_P2
2023/08/24 00:01:02;;;;;;;;;;;20.40;55.30;;;;;;5031696;28;20008;-75
2023/08/24 00:03:28;;;;;;;;;;;20.40;55.30;;;;;;5034834;28;19909;-75
2023/08/24 00:05:53;;;;;;;;;;;20.30;55.30;;;;;;5035484;28;19948;-74
2023/08/24 00:08:19;;;;;;;;;;;20.30;55.30;;;;;;5034811;28;19909;-75
2023/08/24 00:10:46;;;;;;;;;;;20.30;55.40;;;;;;5035137;28;19917;-75
2023/08/24 00:13:12;;;;;;;;;;;20.30;55.40;;;;;;5035008;28;19956;-75
2023/08/24 00:15:39;;;;;;;;;;;20.20;55.60;;;;;;5034871;28;20338;-74
2023/08/24 00:18:04;;;;;;;;;;;20.20;55.60;;;;;;5033551;28;20387;-74
2023/08/24 00:20:32;;;;;;;;;;;20.10;55.60;;;;;;5032979;28;19917;-74
2023/08/24 00:22:58;;;;;;;;;;;20.10;55.70;;;;;;5033320;28;19917;-66
2023/08/24 00:25:23;;;;;;;;;;;20.10;55.80;;;;;;5034535;28;19921;-66
2023/08/24 00:27:49;;;;;;;;;;;20.00;55.80;;;;;;5029288;28;19914;-66
2023/08/24 00:30:15;;;;;;;;;;;20.00;55.90;;;;;;5034098;28;20353;-67
2023/08/24 00:32:40;;;;;;;;;;;19.90;55.90;;;;;;5033871;28;20388;-66
2023/08/24 00:35:06;;;;;;;;;;;19.90;55.80;;;;;;5032458;28;19924;-68
2023/08/24 00:37:32;;;;;;;;;;;19.90;55.80;;;;;;5034172;28;20020;-66
2023/08/24 00:40:03;;;;;;;;;;;19.90;56.70;;;;;;5033494;28;19920;-66
2023/08/24 00:42:29;;;;;;;;;;;19.90;56.60;;;;;;5032674;28;19917;-67
2023/08/24 00:44:55;;;;;;;;;;;19.80;56.50;;;;;;5032336;28;19996;-67
2023/08/24 00:47:21;;;;;;;;;;;19.80;56.50;;;;;;5033866;28;20008;-67
2023/08/24 00:49:47;;;;;;;;;;;19.80;56.50;;;;;;5033770;28;19935;-67
2023/08/24 00:52:12;;;;;;;;;;;19.80;56.50;;;;;;5034161;28;20397;-68
2023/08/24 00:54:39;;;;;;;;;;;19.70;56.40;;;;;;5034066;28;19948;-67
2023/08/24 00:57:04;;;;;;;;;;;19.70;56.30;;;;;;5034382;28;19913;-66
2023/08/24 00:59:30;;;;;;;;;;;19.70;56.30;;;;;;5033812;28;19920;-66
2023/08/24 01:01:56;;;;;;;;;;;19.70;56.30;;;;;;5033000;28;20327;-67
2023/08/24 01:04:22;;;;;;;;;;;19.60;56.30;;;;;;5033978;28;19913;-66
2023/08/24 01:06:48;;;;;;;;;;;19.70;56.30;;;;;;5033215;28;19956;-68
2023/08/24 01:09:13;;;;;;;;;;;19.60;56.50;;;;;;5031090;28;19945;-67
2023/08/24 01:11:49;;;;;;;;;;;19.50;56.60;;;;;;5031349;28;19913;-67
2023/08/24 01:14:37;;;;;;;;;;;19.50;56.60;;;;;;5032464;28;19917;-66
2023/08/24 01:17:04;;;;;;;;;;;19.50;56.60;;;;;;5032540;28;19909;-67
2023/08/24 01:19:42;;;;;;;;;;;19.50;56.60;;;;;;5029862;28;19917;-68
2023/08/24 01:22:14;;;;;;;;;;;19.50;57.00;;;;;;5024053;28;20008;-67
2023/08/24 01:24:46;;;;;;;;;;;19.50;57.00;;;;;;5033330;28;19913;-74
2023/08/24 01:27:12;;;;;;;;;;;19.50;57.00;;;;;;5032420;28;19918;-74
2023/08/24 01:29:40;;;;;;;;;;;19.40;57.00;;;;;;5033365;28;19909;-75
2023/08/24 01:32:09;;;;;;;;;;;19.40;57.00;;;;;;5033490;28;19952;-73
2023/08/24 01:34:36;;;;;;;;;;;19.30;57.00;;;;;;5033189;28;20428;-73
2023/08/24 01:37:01;;;;;;;;;;;19.30;57.00;;;;;;5031253;28;20000;-74
2023/08/24 01:39:30;;;;;;;;;;;19.30;57.40;;;;;;5033119;28;20024;-74
2023/08/24 01:41:59;;;;;;;;;;;19.30;57.40;;;;;;5033086;28;20391;-75
2023/08/24 01:44:25;;;;;;;;;;;19.30;57.50;;;;;;5032792;28;19913;-73
2023/08/24 01:46:52;;;;;;;;;;;19.30;57.40;;;;;;5033032;28;20015;-74
2023/08/24 01:49:18;;;;;;;;;;;19.30;57.50;;;;;;5032646;28;19969;-74
2023/08/24 01:51:44;;;;;;;;;;;19.20;57.50;;;;;;5033074;28;20286;-74
2023/08/24 01:54:09;;;;;;;;;;;19.20;57.50;;;;;;5033313;28;19924;-74
2023/08/24 01:56:35;;;;;;;;;;;19.20;58.00;;;;;;5033252;28;19913;-75
2023/08/24 01:59:00;;;;;;;;;;;19.20;58.10;;;;;;5033494;28;20003;-74
2023/08/24 02:01:26;;;;;;;;;;;19.20;58.00;;;;;;5032728;28;20408;-75
2023/08/24 02:03:51;;;;;;;;;;;19.10;57.90;;;;;;5033389;28;19917;-75
2023/08/24 02:06:17;;;;;;;;;;;19.10;57.90;;;;;;5032663;28;19916;-75
2023/08/24 02:08:44;;;;;;;;;;;19.10;58.00;;;;;;5019000;28;19918;-75
2023/08/24 02:11:10;;;;;;;;;;;19.10;58.00;;;;;;5030092;28;19917;-74
2023/08/24 02:13:35;;;;;;;;;;;19.10;57.90;;;;;;5033125;28;19924;-75
2023/08/24 02:16:01;;;;;;;;;;;19.10;57.80;;;;;;5033157;28;20335;-75
2023/08/24 02:18:27;;;;;;;;;;;19.00;57.90;;;;;;5031132;28;19925;-75
2023/08/24 02:20:52;;;;;;;;;;;19.00;57.80;;;;;;5032627;28;19910;-74
2023/08/24 02:23:18;;;;;;;;;;;19.00;57.80;;;;;;5032929;28;19925;-74
2023/08/24 02:25:43;;;;;;;;;;;19.00;57.80;;;;;;5031604;28;19940;-76
2023/08/24 02:28:09;;;;;;;;;;;18.90;57.80;;;;;;5022694;28;19921;-75
2023/08/24 02:30:37;;;;;;;;;;;18.90;57.80;;;;;;5032616;28;19951;-75
2023/08/24 02:33:02;;;;;;;;;;;18.90;57.80;;;;;;5032797;28;19971;-74
2023/08/24 02:35:28;;;;;;;;;;;18.80;57.80;;;;;;5029187;28;20329;-74
2023/08/24 02:37:55;;;;;;;;;;;18.80;58.00;;;;;;5032594;28;19917;-75
2023/08/24 02:40:20;;;;;;;;;;;18.80;58.60;;;;;;5032689;28;20036;-75
2023/08/24 02:42:45;;;;;;;;;;;18.90;58.50;;;;;;5032788;28;20572;-76
2023/08/24 02:45:11;;;;;;;;;;;18.80;58.50;;;;;;5030008;28;19913;-75
2023/08/24 02:47:36;;;;;;;;;;;18.80;58.60;;;;;;5032379;28;19921;-75
2023/08/24 02:50:02;;;;;;;;;;;18.80;58.60;;;;;;5032375;28;19967;-76
2023/08/24 02:52:27;;;;;;;;;;;18.80;58.90;;;;;;5032341;28;19953;-75
2023/08/24 02:54:53;;;;;;;;;;;18.80;58.70;;;;;;5032279;28;19931;-75
2023/08/24 02:57:18;;;;;;;;;;;18.80;58.60;;;;;;5032435;28;19921;-73
2023/08/24 02:59:44;;;;;;;;;;;18.80;58.50;;;;;;5031921;28;19909;-74
2023/08/24 03:02:09;;;;;;;;;;;18.70;58.50;;;;;;5031884;28;19974;-75
2023/08/24 03:04:35;;;;;;;;;;;18.70;58.80;;;;;;5031828;28;20429;-75
2023/08/24 03:07:01;;;;;;;;;;;18.70;58.80;;;;;;5031787;28;19971;-75
2023/08/24 03:09:26;;;;;;;;;;;18.70;58.80;;;;;;5031691;28;20327;-75
2023/08/24 03:11:52;;;;;;;;;;;18.70;58.90;;;;;;5031665;28;19909;-74
2023/08/24 03:14:18;;;;;;;;;;;18.60;59.00;;;;;;5032071;28;19962;-74
2023/08/24 03:16:44;;;;;;;;;;;18.60;59.10;;;;;;5032086;28;19944;-75
2023/08/24 03:19:10;;;;;;;;;;;18.70;59.20;;;;;;5031179;28;19967;-74
2023/08/24 03:21:36;;;;;;;;;;;18.70;59.30;;;;;;5031736;28;20430;-75
2023/08/24 03:24:04;;;;;;;;;;;18.70;59.20;;;;;;5030791;28;20016;-74
2023/08/24 03:26:30;;;;;;;;;;;18.70;59.10;;;;;;5029245;28;19920;-74
2023/08/24 03:28:55;;;;;;;;;;;18.80;59.00;;;;;;5031712;28;19917;-74
2023/08/24 03:31:20;;;;;;;;;;;18.80;58.90;;;;;;5031745;28;19909;-66
2023/08/24 03:33:46;;;;;;;;;;;18.80;59.00;;;;;;5031554;28;19928;-67
2023/08/24 03:36:12;;;;;;;;;;;18.80;59.10;;;;;;5032044;28;19939;-66
2023/08/24 03:38:38;;;;;;;;;;;18.80;59.10;;;;;;5035774;28;19917;-68
2023/08/24 03:41:03;;;;;;;;;;;18.80;59.10;;;;;;5035413;28;20284;-67
2023/08/24 03:43:36;;;;;;;;;;;18.80;59.20;;;;;;5035503;28;19921;-67
2023/08/24 03:46:03;;;;;;;;;;;18.80;59.20;;;;;;5034229;28;19963;-67
2023/08/24 03:48:29;;;;;;;;;;;18.80;59.40;;;;;;5035419;28;20323;-67
2023/08/24 03:50:55;;;;;;;;;;;18.80;59.40;;;;;;5034910;28;19921;-67
2023/08/24 03:53:21;;;;;;;;;;;18.80;59.30;;;;;;5033585;28;19952;-67
2023/08/24 03:55:50;;;;;;;;;;;18.90;59.20;;;;;;5034245;28;20328;-68
2023/08/24 03:58:15;;;;;;;;;;;19.00;59.30;;;;;;5034030;28;19917;-67
2023/08/24 04:00:41;;;;;;;;;;;19.00;59.20;;;;;;5035005;28;19909;-68
2023/08/24 04:03:07;;;;;;;;;;;19.00;59.20;;;;;;5033505;28;19990;-68
2023/08/24 04:05:33;;;;;;;;;;;19.00;59.10;;;;;;5034435;28;19917;-68
2023/08/24 04:08:00;;;;;;;;;;;19.10;59.10;;;;;;5035122;28;19924;-69
2023/08/24 04:10:25;;;;;;;;;;;19.10;59.10;;;;;;5034900;28;19909;-68
2023/08/24 04:12:51;;;;;;;;;;;19.20;59.20;;;;;;5034989;28;20275;-68
2023/08/24 04:15:16;;;;;;;;;;;19.20;59.30;;;;;;5034630;28;19944;-68
2023/08/24 04:17:42;;;;;;;;;;;19.30;59.30;;;;;;5034863;28;19924;-68
2023/08/24 04:20:07;;;;;;;;;;;19.30;59.40;;;;;;5034611;28;19932;-67
2023/08/24 04:22:33;;;;;;;;;;;19.30;59.40;;;;;;5034619;28;19921;-68
2023/08/24 04:24:59;;;;;;;;;;;19.40;59.60;;;;;;5034731;28;19968;-68
2023/08/24 04:27:25;;;;;;;;;;;19.40;60.00;;;;;;5034510;28;19917;-68
2023/08/24 04:29:50;;;;;;;;;;;19.50;59.90;;;;;;5034388;28;20037;-69
2023/08/24 04:32:16;;;;;;;;;;;19.60;59.90;;;;;;5034375;28;19928;-68
2023/08/24 04:34:42;;;;;;;;;;;19.70;59.90;;;;;;5034122;28;19909;-68
2023/08/24 04:37:07;;;;;;;;;;;19.70;59.90;;;;;;5034342;28;19995;-68
2023/08/24 04:39:33;;;;;;;;;;;19.80;59.90;;;;;;5034300;28;19909;-68
2023/08/24 04:41:58;;;;;;;;;;;19.90;59.90;;;;;;5033133;28;19920;-75
2023/08/24 04:44:24;;;;;;;;;;;20.00;59.90;;;;;;5034266;28;20348;-76
2023/08/24 04:46:50;;;;;;;;;;;20.20;60.00;;;;;;5034434;28;19913;-75
2023/08/24 04:49:15;;;;;;;;;;;20.30;60.10;;;;;;5033098;28;20280;-75
2023/08/24 04:51:40;;;;;;;;;;;20.50;60.10;;;;;;5034256;28;20357;-75
2023/08/24 04:54:06;;;;;;;;;;;20.70;60.10;;;;;;5033244;28;19921;-73
2023/08/24 04:56:31;;;;;;;;;;;20.80;59.80;;;;;;5034500;28;20011;-74
2023/08/24 04:58:57;;;;;;;;;;;20.80;59.60;;;;;;5034758;28;19968;-76
2023/08/24 05:01:24;;;;;;;;;;;20.80;59.60;;;;;;5034093;28;19965;-75
2023/08/24 05:03:51;;;;;;;;;;;20.80;59.60;;;;;;5034369;28;19923;-74
2023/08/24 05:06:16;;;;;;;;;;;20.80;59.50;;;;;;5033973;28;20446;-74
2023/08/24 05:08:42;;;;;;;;;;;20.80;59.40;;;;;;5034246;28;20013;-74
2023/08/24 05:11:18;;;;;;;;;;;20.80;59.40;;;;;;5034044;28;19920;-75
2023/08/24 05:13:43;;;;;;;;;;;20.80;59.30;;;;;;5032634;28;20391;-72
2023/08/24 05:16:09;;;;;;;;;;;20.80;59.30;;;;;;5034561;28;19909;-73
2023/08/24 05:18:38;;;;;;;;;;;20.80;59.60;;;;;;5035521;28;19923;-72
2023/08/24 05:21:03;;;;;;;;;;;20.80;60.40;;;;;;5034140;28;19955;-73
2023/08/24 05:23:29;;;;;;;;;;;20.80;61.40;;;;;;5036118;28;20323;-72
2023/08/24 05:25:56;;;;;;;;;;;20.70;62.20;;;;;;5034753;28;19909;-72
2023/08/24 05:28:21;;;;;;;;;;;20.70;62.90;;;;;;5034992;28;19917;-73
2023/08/24 05:30:47;;;;;;;;;;;20.60;63.60;;;;;;5034452;28;19999;-73
2023/08/24 05:33:12;;;;;;;;;;;20.60;64.20;;;;;;5035068;28;19918;-73
2023/08/24 05:35:38;;;;;;;;;;;20.60;64.60;;;;;;5033172;28;19913;-73
2023/08/24 05:38:03;;;;;;;;;;;20.50;65.10;;;;;;5034869;28;20369;-73
2023/08/24 05:40:29;;;;;;;;;;;20.50;65.60;;;;;;5034306;28;20385;-73
2023/08/24 05:42:54;;;;;;;;;;;20.50;66.00;;;;;;5034247;28;19932;-74
2023/08/24 05:45:19;;;;;;;;;;;20.60;66.30;;;;;;5032838;28;20324;-74
2023/08/24 05:47:45;;;;;;;;;;;20.60;66.80;;;;;;5034156;28;19971;-74
2023/08/24 05:50:11;;;;;;;;;;;20.60;67.10;;;;;;5034048;28;19917;-74
2023/08/24 05:52:37;;;;;;;;;;;20.60;67.20;;;;;;5033424;28;19921;-70
2023/08/24 05:55:02;;;;;;;;;;;20.60;67.60;;;;;;5033002;28;19974;-70
2023/08/24 05:57:28;;;;;;;;;;;20.70;67.70;;;;;;5032959;28;19917;-70
2023/08/24 05:59:53;;;;;;;;;;;20.70;68.00;;;;;;5031420;28;19987;-70
2023/08/24 06:02:19;;;;;;;;;;;20.80;68.30;;;;;;5033210;28;20372;-71
2023/08/24 06:04:44;;;;;;;;;;;20.90;68.40;;;;;;5031857;28;19909;-69
2023/08/24 06:07:10;;;;;;;;;;;21.00;68.60;;;;;;5031518;28;20392;-69
2023/08/24 06:09:37;;;;;;;;;;;21.00;68.70;;;;;;5030530;28;21610;-70
2023/08/24 06:12:02;;;;;;;;;;;21.10;68.90;;;;;;5031439;28;20036;-69
2023/08/24 06:14:28;;;;;;;;;;;21.30;69.00;;;;;;5031834;28;19995;-70
2023/08/24 06:16:53;;;;;;;;;;;21.30;69.10;;;;;;5031941;28;19971;-71
2023/08/24 06:19:19;;;;;;;;;;;21.50;69.10;;;;;;5032719;28;19913;-69
2023/08/24 06:21:44;;;;;;;;;;;21.60;69.30;;;;;;5032109;28;19913;-69
2023/08/24 06:24:10;;;;;;;;;;;21.70;69.50;;;;;;5030773;28;19920;-67
2023/08/24 06:26:35;;;;;;;;;;;21.80;69.40;;;;;;5032689;28;20029;-68
2023/08/24 06:29:01;;;;;;;;;;;21.90;69.20;;;;;;5032736;28;20272;-68
2023/08/24 06:31:26;;;;;;;;;;;22.00;69.40;;;;;;5032505;28;19921;-69
2023/08/24 06:33:52;;;;;;;;;;;22.10;69.60;;;;;;5032333;28;19914;-69
2023/08/24 06:36:18;;;;;;;;;;;22.30;69.70;;;;;;5032180;28;19961;-68
2023/08/24 06:38:43;;;;;;;;;;;22.30;69.60;;;;;;5032548;28;20374;-69
2023/08/24 06:41:11;;;;;;;;;;;22.40;69.50;;;;;;5032126;28;19913;-70
2023/08/24 06:43:38;;;;;;;;;;;22.50;69.70;;;;;;5032327;28;19921;-69
2023/08/24 06:46:07;;;;;;;;;;;22.60;69.70;;;;;;5031899;28;20254;-68
2023/08/24 06:48:33;;;;;;;;;;;22.70;70.00;;;;;;5032315;28;19924;-68
2023/08/24 06:50:59;;;;;;;;;;;22.80;69.90;;;;;;5031780;28;19921;-69
2023/08/24 06:53:24;;;;;;;;;;;23.00;69.90;;;;;;5031022;28;19992;-68
2023/08/24 06:55:56;;;;;;;;;;;23.20;69.70;;;;;;5031878;28;19913;-67
2023/08/24 06:58:22;;;;;;;;;;;23.40;69.70;;;;;;5031015;28;20007;-68
2023/08/24 07:00:48;;;;;;;;;;;23.50;69.40;;;;;;5031139;28;19999;-68
2023/08/24 07:03:13;;;;;;;;;;;23.70;69.40;;;;;;5030786;28;21287;-68
2023/08/24 07:05:39;;;;;;;;;;;23.80;68.90;;;;;;5030934;28;20384;-68
2023/08/24 07:08:05;;;;;;;;;;;23.90;68.70;;;;;;5031106;28;19917;-68
2023/08/24 07:10:31;;;;;;;;;;;24.10;69.10;;;;;;5028586;28;19921;-68
2023/08/24 07:12:56;;;;;;;;;;;24.20;69.00;;;;;;5030568;28;20355;-67
2023/08/24 07:15:21;;;;;;;;;;;24.40;68.70;;;;;;5030498;28;19921;-68
2023/08/24 07:17:47;;;;;;;;;;;24.50;68.30;;;;;;5031899;28;20312;-68
2023/08/24 07:20:13;;;;;;;;;;;24.80;68.90;;;;;;5029391;28;19968;-68
2023/08/24 07:22:38;;;;;;;;;;;25.50;70.50;;;;;;5030222;28;19923;-67
2023/08/24 07:25:05;;;;;;;;;;;26.20;71.00;;;;;;5029140;28;19917;-68
2023/08/24 07:27:34;;;;;;;;;;;27.00;70.70;;;;;;5031024;28;20376;-67
2023/08/24 07:29:59;;;;;;;;;;;27.70;70.00;;;;;;5028829;28;20001;-68
2023/08/24 07:32:26;;;;;;;;;;;28.10;68.50;;;;;;5030397;28;20011;-68
2023/08/24 07:34:51;;;;;;;;;;;28.30;67.40;;;;;;5030781;28;19971;-68
2023/08/24 07:37:17;;;;;;;;;;;28.50;66.10;;;;;;5029496;28;19913;-68
2023/08/24 07:39:42;;;;;;;;;;;28.70;66.40;;;;;;5029941;28;20391;-68
2023/08/24 07:42:08;;;;;;;;;;;29.20;67.60;;;;;;5029679;28;20445;-69
2023/08/24 07:44:33;;;;;;;;;;;29.80;66.00;;;;;;5027234;28;20284;-67
2023/08/24 07:46:58;;;;;;;;;;;30.30;66.00;;;;;;5030642;28;19917;-68
2023/08/24 07:49:24;;;;;;;;;;;30.90;65.50;;;;;;5029443;28;20007;-68
2023/08/24 07:51:49;;;;;;;;;;;31.50;64.70;;;;;;5028528;28;20000;-67
2023/08/24 07:54:15;;;;;;;;;;;32.20;65.30;;;;;;5028724;28;19923;-68
2023/08/24 07:56:40;;;;;;;;;;;32.80;63.40;;;;;;5030792;28;19920;-68
2023/08/24 07:59:06;;;;;;;;;;;33.40;61.40;;;;;;5030152;28;19917;-68
2023/08/24 08:01:32;;;;;;;;;;;33.90;60.60;;;;;;5029427;28;19930;-68
2023/08/24 08:03:57;;;;;;;;;;;34.40;59.30;;;;;;5024115;28;19928;-69
2023/08/24 08:06:24;;;;;;;;;;;34.90;58.30;;;;;;5030647;28;19913;-68
2023/08/24 08:08:51;;;;;;;;;;;35.40;57.00;;;;;;5029134;28;19920;-68
2023/08/24 08:11:17;;;;;;;;;;;36.00;55.60;;;;;;5030258;28;19918;-67
2023/08/24 08:13:42;;;;;;;;;;;36.50;54.10;;;;;;5030730;28;19921;-68
2023/08/24 08:16:08;;;;;;;;;;;37.00;53.60;;;;;;5031067;28;20472;-68
2023/08/24 08:18:33;;;;;;;;;;;37.50;51.40;;;;;;5028639;28;20016;-68
2023/08/24 08:20:59;;;;;;;;;;;38.00;49.20;;;;;;5030889;28;19913;-68
2023/08/24 08:23:25;;;;;;;;;;;38.50;48.30;;;;;;5033710;28;20280;-68
2023/08/24 08:25:50;;;;;;;;;;;38.90;46.90;;;;;;5034642;28;19914;-68
2023/08/24 08:28:16;;;;;;;;;;;39.40;44.50;;;;;;5027218;28;19914;-67
2023/08/24 08:30:41;;;;;;;;;;;39.70;43.50;;;;;;5030472;28;19921;-67
2023/08/24 08:33:08;;;;;;;;;;;40.00;40.40;;;;;;5033089;28;19913;-69
2023/08/24 08:35:33;;;;;;;;;;;40.20;38.70;;;;;;5034347;28;19922;-68
2023/08/24 08:37:58;;;;;;;;;;;40.40;38.20;;;;;;5034418;28;19921;-68
2023/08/24 08:40:28;;;;;;;;;;;40.70;37.80;;;;;;5034281;28;20285;-68
2023/08/24 08:42:55;;;;;;;;;;;40.80;36.50;;;;;;5034287;28;19964;-68
2023/08/24 08:45:24;;;;;;;;;;;41.00;35.10;;;;;;5034103;28;19945;-68
2023/08/24 08:47:49;;;;;;;;;;;41.00;33.40;;;;;;5034482;28;19996;-70
2023/08/24 08:50:15;;;;;;;;;;;41.10;33.50;;;;;;5031925;28;20028;-68
2023/08/24 08:52:40;;;;;;;;;;;41.40;33.40;;;;;;5034197;28;19928;-67
2023/08/24 08:55:09;;;;;;;;;;;41.70;32.80;;;;;;5033952;28;19917;-67
2023/08/24 08:57:34;;;;;;;;;;;41.80;32.20;;;;;;5034134;28;19920;-67
2023/08/24 09:00:00;;;;;;;;;;;41.90;31.40;;;;;;5033909;28;19914;-68
2023/08/24 09:02:28;;;;;;;;;;;42.10;30.90;;;;;;5033973;28;20276;-68
2023/08/24 09:04:54;;;;;;;;;;;42.20;31.40;;;;;;5034057;28;19917;-67
2023/08/24 09:07:20;;;;;;;;;;;42.30;30.90;;;;;;5033652;28;20043;-67
2023/08/24 09:09:46;;;;;;;;;;;42.30;30.20;;;;;;5033658;28;19917;-67
2023/08/24 09:12:11;;;;;;;;;;;42.40;30.50;;;;;;5033759;28;19921;-68
2023/08/24 09:14:37;;;;;;;;;;;42.50;29.60;;;;;;5033577;28;19925;-68
2023/08/24 09:17:03;;;;;;;;;;;42.60;29.10;;;;;;5033577;28;20001;-67
2023/08/24 09:19:32;;;;;;;;;;;42.60;28.50;;;;;;5033339;28;19939;-68
2023/08/24 09:21:57;;;;;;;;;;;42.50;27.90;;;;;;5033564;28;19917;-68
2023/08/24 09:24:32;;;;;;;;;;;42.60;28.40;;;;;;5033730;28;19963;-67
2023/08/24 09:26:58;;;;;;;;;;;42.80;27.70;;;;;;5033463;28;19915;-68
2023/08/24 09:29:23;;;;;;;;;;;42.70;27.30;;;;;;5033518;28;20288;-68
2023/08/24 09:31:50;;;;;;;;;;;42.90;27.70;;;;;;5033293;28;20341;-68
2023/08/24 09:34:18;;;;;;;;;;;43.00;27.00;;;;;;5032764;28;19920;-68
2023/08/24 09:36:44;;;;;;;;;;;42.90;26.40;;;;;;5033065;28;19909;-68
2023/08/24 09:39:10;;;;;;;;;;;42.70;25.80;;;;;;5032438;28;20288;-67
2023/08/24 09:41:39;;;;;;;;;;;42.60;26.20;;;;;;5032958;28;19916;-68
2023/08/24 09:44:05;;;;;;;;;;;42.60;26.20;;;;;;5033619;28;20357;-68
2023/08/24 09:46:30;;;;;;;;;;;42.70;26.40;;;;;;5032990;28;19964;-67
2023/08/24 09:48:58;;;;;;;;;;;42.70;26.10;;;;;;5033739;28;19913;-68
2023/08/24 09:51:25;;;;;;;;;;;42.80;25.80;;;;;;5033189;28;19928;-66
2023/08/24 09:53:51;;;;;;;;;;;42.80;25.90;;;;;;5033362;28;19913;-67
2023/08/24 09:56:17;;;;;;;;;;;42.90;25.60;;;;;;5032787;28;19921;-66
2023/08/24 09:58:43;;;;;;;;;;;42.80;25.40;;;;;;5015944;28;20364;-67
2023/08/24 10:01:09;;;;;;;;;;;42.80;24.80;;;;;;5032583;28;19920;-67
2023/08/24 10:03:40;;;;;;;;;;;42.70;24.60;;;;;;5029972;28;19917;-66
2023/08/24 10:06:07;;;;;;;;;;;42.80;24.40;;;;;;5033083;28;20012;-67
2023/08/24 10:08:35;;;;;;;;;;;42.80;24.50;;;;;;5032062;28;20442;-67
2023/08/24 10:11:01;;;;;;;;;;;42.80;24.40;;;;;;5031468;28;19925;-67
2023/08/24 10:13:29;;;;;;;;;;;43.00;24.30;;;;;;5032344;28;19921;-67
2023/08/24 10:15:55;;;;;;;;;;;43.20;24.20;;;;;;5032943;28;19939;-67
2023/08/24 10:18:23;;;;;;;;;;;43.20;23.70;;;;;;5032286;28;20296;-67
2023/08/24 10:20:49;;;;;;;;;;;43.10;23.80;;;;;;5031886;28;20381;-66
2023/08/24 10:23:17;;;;;;;;;;;43.10;23.90;;;;;;5032380;28;19923;-67
2023/08/24 10:25:44;;;;;;;;;;;43.10;23.80;;;;;;5029068;28;19932;-67
2023/08/24 10:28:10;;;;;;;;;;;43.10;23.90;;;;;;5032632;28;19913;-67
2023/08/24 10:30:37;;;;;;;;;;;43.10;23.50;;;;;;5031610;28;19913;-68
2023/08/24 10:33:03;;;;;;;;;;;42.90;23.40;;;;;;5031544;28;20268;-67
2023/08/24 10:35:31;;;;;;;;;;;42.70;23.60;;;;;;5032555;28;19921;-67
2023/08/24 10:37:58;;;;;;;;;;;42.60;24.00;;;;;;5032561;28;19917;-67
2023/08/24 10:40:34;;;;;;;;;;;42.70;24.00;;;;;;5030995;28;19917;-67
2023/08/24 10:43:02;;;;;;;;;;;42.60;23.80;;;;;;5028970;28;19921;-67
2023/08/24 10:45:48;;;;;;;;;;;42.50;24.00;;;;;;5030323;28;19921;-67
2023/08/24 10:48:15;;;;;;;;;;;42.50;24.20;;;;;;5032009;28;19913;-66
2023/08/24 10:50:41;;;;;;;;;;;42.60;24.20;;;;;;5030821;28;20388;-66
2023/08/24 10:53:10;;;;;;;;;;;42.70;24.20;;;;;;5031926;28;20365;-70
2023/08/24 10:55:37;;;;;;;;;;;42.70;24.00;;;;;;5030482;28;19920;-66
2023/08/24 10:58:03;;;;;;;;;;;42.80;24.30;;;;;;5030241;28;19913;-66
2023/08/24 11:00:31;;;;;;;;;;;43.10;24.40;;;;;;5029210;28;19924;-67
2023/08/24 11:02:57;;;;;;;;;;;43.40;24.00;;;;;;5031548;28;19921;-67
2023/08/24 11:05:33;;;;;;;;;;;43.50;23.90;;;;;;5030267;28;19917;-67
2023/08/24 11:08:02;;;;;;;;;;;43.60;23.70;;;;;;5031860;28;20264;-67
2023/08/24 11:10:33;;;;;;;;;;;43.80;23.90;;;;;;5028614;28;19967;-67
2023/08/24 11:13:04;;;;;;;;;;;43.90;23.70;;;;;;5031873;28;19913;-67
2023/08/24 11:15:31;;;;;;;;;;;44.00;22.90;;;;;;5030292;28;20420;-68
2023/08/24 11:18:15;;;;;;;;;;;44.00;23.10;;;;;;5030686;28;19957;-68
2023/08/24 11:20:45;;;;;;;;;;;44.00;23.10;;;;;;5027868;28;20262;-67
2023/08/24 11:23:11;;;;;;;;;;;44.00;23.40;;;;;;5031449;28;20018;-66
2023/08/24 11:25:36;;;;;;;;;;;44.00;23.20;;;;;;5030609;28;19995;-66
2023/08/24 11:28:03;;;;;;;;;;;44.00;23.00;;;;;;5029098;28;19960;-68
2023/08/24 11:30:29;;;;;;;;;;;43.50;22.60;;;;;;5031243;28;19960;-68
2023/08/24 11:32:54;;;;;;;;;;;43.20;23.10;;;;;;5029724;28;19998;-68
2023/08/24 11:35:21;;;;;;;;;;;43.10;23.50;;;;;;5030842;28;20009;-68
2023/08/24 11:37:51;;;;;;;;;;;43.10;22.80;;;;;;5029088;28;19943;-66
2023/08/24 11:40:16;;;;;;;;;;;42.90;23.20;;;;;;5031289;28;20004;-67
2023/08/24 11:42:42;;;;;;;;;;;43.00;23.30;;;;;;5031500;28;20024;-74
2023/08/24 11:45:12;;;;;;;;;;;42.80;23.00;;;;;;5029311;28;19964;-75
2023/08/24 11:47:38;;;;;;;;;;;42.80;23.10;;;;;;5030200;28;19913;-75
2023/08/24 11:50:03;;;;;;;;;;;42.80;23.10;;;;;;5030496;28;19921;-74
2023/08/24 11:52:29;;;;;;;;;;;42.70;22.90;;;;;;5031048;28;19955;-74
2023/08/24 11:54:54;;;;;;;;;;;42.40;23.10;;;;;;5030925;28;19921;-74
2023/08/24 11:57:20;;;;;;;;;;;42.30;23.20;;;;;;5029788;28;19921;-74
2023/08/24 11:59:46;;;;;;;;;;;42.10;23.10;;;;;;5034973;28;19951;-74
2023/08/24 12:02:11;;;;;;;;;;;41.80;23.30;;;;;;5033053;28;19924;-75
2023/08/24 12:04:38;;;;;;;;;;;41.70;23.50;;;;;;5033441;28;20388;-74
2023/08/24 12:07:08;;;;;;;;;;;41.60;23.70;;;;;;5033614;28;19909;-75
2023/08/24 12:09:33;;;;;;;;;;;41.40;24.10;;;;;;5034061;28;20289;-74
2023/08/24 12:11:59;;;;;;;;;;;41.20;24.30;;;;;;5034790;28;19909;-75
2023/08/24 12:14:24;;;;;;;;;;;41.00;24.50;;;;;;5032569;28;19995;-74
2023/08/24 12:16:53;;;;;;;;;;;40.70;24.90;;;;;;5034667;28;19932;-74
2023/08/24 12:19:21;;;;;;;;;;;40.50;25.20;;;;;;5034096;28;20389;-73
2023/08/24 12:21:49;;;;;;;;;;;40.30;25.40;;;;;;5034533;28;19956;-74
2023/08/24 12:24:15;;;;;;;;;;;40.20;25.60;;;;;;5034727;28;20383;-74
2023/08/24 12:26:41;;;;;;;;;;;40.10;25.80;;;;;;5034177;28;19913;-75
2023/08/24 12:29:07;;;;;;;;;;;40.10;26.00;;;;;;5034664;28;20335;-74
2023/08/24 12:31:33;;;;;;;;;;;40.00;26.30;;;;;;5033961;28;19921;-74
2023/08/24 12:34:03;;;;;;;;;;;39.80;26.10;;;;;;5035457;28;20440;-75
2023/08/24 12:36:29;;;;;;;;;;;39.60;26.50;;;;;;5033714;28;19918;-74
2023/08/24 12:38:54;;;;;;;;;;;39.50;26.70;;;;;;5035113;28;19920;-74
2023/08/24 12:41:20;;;;;;;;;;;39.40;26.70;;;;;;5033517;28;19917;-75
2023/08/24 12:43:45;;;;;;;;;;;39.30;26.90;;;;;;5034666;28;19917;-74
2023/08/24 12:46:10;;;;;;;;;;;39.20;27.10;;;;;;5029504;28;19917;-74
2023/08/24 12:48:36;;;;;;;;;;;39.10;27.00;;;;;;5013797;28;19917;-75
2023/08/24 12:51:01;;;;;;;;;;;38.90;27.40;;;;;;5014042;28;19928;-69
2023/08/24 12:53:27;;;;;;;;;;;38.70;27.60;;;;;;5032177;28;19972;-67
2023/08/24 12:55:52;;;;;;;;;;;38.70;27.90;;;;;;5031970;28;19940;-67
2023/08/24 12:58:19;;;;;;;;;;;38.80;28.10;;;;;;5030691;28;19967;-67
2023/08/24 13:00:45;;;;;;;;;;;38.70;28.00;;;;;;5033763;28;19920;-66
2023/08/24 13:03:11;;;;;;;;;;;38.60;28.00;;;;;;5034007;28;19917;-68
2023/08/24 13:05:36;;;;;;;;;;;38.60;28.20;;;;;;5033766;28;20436;-66
2023/08/24 13:08:02;;;;;;;;;;;38.70;28.20;;;;;;5034075;28;19913;-66
2023/08/24 13:10:28;;;;;;;;;;;38.60;28.20;;;;;;5032647;28;19920;-69
2023/08/24 13:12:53;;;;;;;;;;;38.60;28.40;;;;;;5034063;28;19952;-66
2023/08/24 13:15:20;;;;;;;;;;;38.50;28.50;;;;;;5033078;28;19936;-67
2023/08/24 13:17:45;;;;;;;;;;;38.30;28.70;;;;;;5032950;28;19913;-66
2023/08/24 13:20:10;;;;;;;;;;;38.30;29.00;;;;;;5033677;28;19914;-66
2023/08/24 13:22:36;;;;;;;;;;;38.30;29.00;;;;;;5033443;28;19921;-67
2023/08/24 13:25:01;;;;;;;;;;;38.40;29.00;;;;;;5032879;28;19917;-67
2023/08/24 13:27:27;;;;;;;;;;;38.40;29.10;;;;;;5033554;28;19983;-67
2023/08/24 13:29:56;;;;;;;;;;;38.30;29.10;;;;;;5032430;28;19924;-66
2023/08/24 13:32:22;;;;;;;;;;;38.00;29.30;;;;;;5033085;28;19924;-66
2023/08/24 13:34:47;;;;;;;;;;;38.00;29.50;;;;;;5033214;28;20308;-66
2023/08/24 13:37:13;;;;;;;;;;;37.90;29.70;;;;;;5031003;28;19913;-68
2023/08/24 13:39:38;;;;;;;;;;;37.80;29.90;;;;;;5032156;28;20014;-66
2023/08/24 13:42:04;;;;;;;;;;;37.80;30.10;;;;;;5033130;28;19913;-69
2023/08/24 13:44:29;;;;;;;;;;;37.90;30.30;;;;;;5032504;28;19949;-66
2023/08/24 13:46:55;;;;;;;;;;;38.10;30.10;;;;;;5032900;28;20003;-66
2023/08/24 13:49:20;;;;;;;;;;;38.10;30.00;;;;;;5032605;28;19925;-66
2023/08/24 13:51:46;;;;;;;;;;;38.10;29.80;;;;;;5032045;28;20385;-67
2023/08/24 13:54:18;;;;;;;;;;;38.20;29.70;;;;;;5032929;28;19917;-66
2023/08/24 13:56:47;;;;;;;;;;;38.20;29.60;;;;;;5032029;28;20479;-66
2023/08/24 13:59:13;;;;;;;;;;;38.20;29.60;;;;;;5031911;28;20279;-68
2023/08/24 14:01:39;;;;;;;;;;;38.30;29.80;;;;;;5034713;28;20027;-67
2023/08/24 14:04:05;;;;;;;;;;;38.30;29.80;;;;;;5032898;28;19912;-68
2023/08/24 14:06:30;;;;;;;;;;;38.30;29.80;;;;;;5032178;28;19924;-66
2023/08/24 14:08:56;;;;;;;;;;;38.30;29.90;;;;;;5032502;28;19923;-68
2023/08/24 14:11:22;;;;;;;;;;;38.30;30.00;;;;;;5029988;28;19928;-67